Time;durP1;ratioP1;P1;durP2;ratioP2;P2;SDS_P1;SDS_P2;PMS_P1;PMS_P2;Temp;Humidity;BMP_temperature;BMP_pressure;BME280_temperature;BME280_humidity;BME280_pressure;Samples;Min_cycle;Max_cycle;Signal;HPM_P1;HPM_P2
2022/03/30 00:02:05;;;;;;;36.55;21.17;;;;;;;7.32;56.02;97074.75;10333510;28;20507;-61
2022/03/30 00:07:04;;;;;;;39.42;23.02;;;;;;;7.47;56.69;97110.03;10333161;28;20071;-61
2022/03/30 00:12:03;;;;;;;;;;;;;;;7.46;56.37;97105.75;10333372;28;20060;-61
2022/03/30 00:17:02;;;;;;;27.15;18.45;;;;;;;7.45;56.82;97101.44;10332821;28;19913;-61
2022/03/30 00:22:01;;;;;;;31.30;19.15;;;;;;;7.48;56.60;97098.88;10332696;28;20057;-61
2022/03/30 00:27:02;;;;;;;38.33;20.08;;;;;;;6.79;56.29;96978.34;10332526;28;20087;-61
2022/03/30 00:32:01;;;;;;;30.63;18.13;;;;;;;7.53;56.55;97085.97;10331914;28;20068;-61
2022/03/30 00:37:00;;;;;;;24.73;18.00;;;;;;;7.43;56.53;97067.91;10332215;28;20029;-61
2022/03/30 00:42:00;;;;;;;31.85;18.95;;;;;;;6.85;56.48;96953.47;10332959;28;20447;-61
2022/03/30 00:46:59;;;;;;;26.23;17.40;;;;;;;7.72;55.76;97090.28;10330610;28;20192;-61
2022/03/30 00:51:59;;;;;;;27.98;16.67;;;;;;;7.53;56.05;97042.94;10331315;28;20075;-61
2022/03/30 00:56:58;;;;;;;28.98;18.00;;;;;;;7.66;56.76;97073.06;10331884;28;20072;-61
2022/03/30 01:01:58;;;;;;;29.15;18.55;;;;;;;7.60;57.08;97085.97;10331401;28;20069;-61
2022/03/30 01:06:58;;;;;;;24.98;16.63;;;;;;;6.50;56.89;96907.88;10331312;28;20060;-61
2022/03/30 01:11:57;;;;;;;31.05;17.85;;;;;;;7.22;56.50;97024.84;10330544;28;20053;-61
2022/03/30 01:16:56;;;;;;;29.77;19.77;;;;;;;7.55;56.92;97077.38;10331576;28;20057;-61
2022/03/30 01:21:55;;;;;;;55.95;30.60;;;;;;;7.56;56.39;97071.31;10330967;28;20120;-61
2022/03/30 01:26:54;;;;;;;;;;;;;;;7.59;57.05;97068.78;10331085;28;20459;-61
2022/03/30 01:37:14;;;;;;;32.23;18.73;;;;;;;6.94;57.03;96967.22;10330676;28;20060;-61
2022/03/30 01:42:13;;;;;;;47.88;26.48;;;;;;;7.45;56.60;97060.13;10338043;28;20721;-61
2022/03/30 01:47:13;;;;;;;34.53;21.52;;;;;;;7.38;56.74;97055.81;10339099;28;20495;-61
2022/03/30 01:52:14;;;;;;;;;;;;;;;7.39;57.13;97073.88;10338800;28;20060;-61
2022/03/30 01:57:12;;;;;;;145.80;78.38;;;;;;;7.18;56.96;97038.59;10338274;28;19959;-61
2022/03/30 02:02:12;;;;;;;37.47;22.92;;;;;;;7.38;57.40;97073.88;10338736;28;20070;-61
2022/03/30 02:07:11;;;;;;;47.33;25.75;;;;;;;7.22;57.86;97070.44;10338612;28;20347;-61
2022/03/30 02:12:10;;;;;;;36.08;22.08;;;;;;;6.90;58.14;97003.31;10337420;28;20033;-61
2022/03/30 02:17:09;;;;;;;27.88;18.55;;;;;;;6.77;57.87;96985.25;10338050;28;20068;-61
2022/03/30 02:22:08;;;;;;;27.08;18.15;;;;;;;6.96;58.04;97026.50;10337456;28;20071;-61
2022/03/30 02:27:07;;;;;;;32.25;18.38;;;;;;;7.18;58.10;97073.88;10337185;28;20369;-61
2022/03/30 02:32:06;;;;;;;30.63;17.10;;;;;;;7.12;58.33;97069.53;10337169;28;20072;-61
2022/03/30 02:37:05;;;;;;;;;;;;;;;7.03;59.15;97065.25;10338028;28;20470;-61
2022/03/30 02:42:08;;;;;;;26.70;15.73;;;;;;;6.94;59.36;97085.00;10336801;28;20436;-61
2022/03/30 02:47:07;;;;;;;28.58;16.33;;;;;;;6.63;60.49;97020.44;10336567;28;20080;-61
2022/03/30 02:52:07;;;;;;;27.27;16.30;;;;;;;6.98;59.89;97073.81;10335685;28;20061;-61
2022/03/30 02:57:06;;;;;;;27.98;16.15;;;;;;;7.07;59.91;97071.25;10336245;28;20067;-61
2022/03/30 03:02:05;;;;;;;33.53;18.95;;;;;;;6.85;59.60;97028.25;10336435;28;20069;-61
2022/03/30 03:07:05;;;;;;;36.90;18.50;;;;;;;6.99;59.03;97050.63;10339095;28;20029;-61
2022/03/30 03:12:04;;;;;;;33.97;19.85;;;;;;;6.83;59.50;97031.66;10339565;28;20083;-61
2022/03/30 03:17:03;;;;;;;53.67;28.70;;;;;;;6.59;60.67;97014.44;10338861;28;20065;-61
2022/03/30 03:22:03;;;;;;;46.80;27.05;;;;;;;6.97;59.33;97061.78;10338215;28;20069;-61
2022/03/30 03:27:02;;;;;;;31.05;16.83;;;;;;;6.45;60.01;96982.59;10337904;28;20064;-61
2022/03/30 03:32:01;;;;;;;28.25;16.52;;;;;;;6.94;60.25;97042.00;10338600;28;20506;-61
2022/03/30 03:37:00;;;;;;;24.33;15.40;;;;;;;7.04;60.07;97050.63;10338035;28;20469;-61
2022/03/30 03:41:59;;;;;;;29.92;17.13;;;;;;;7.05;59.50;97044.59;10337324;28;20041;-61
2022/03/30 03:46:58;;;;;;;29.10;16.60;;;;;;;6.94;60.27;97056.63;10337742;28;20045;-61
2022/03/30 03:51:56;;;;;;;30.10;17.50;;;;;;;6.92;59.64;97041.16;10337002;28;20037;-61
2022/03/30 03:56:56;;;;;;;26.80;16.65;;;;;;;6.74;61.08;97034.22;10336876;28;20052;-61
2022/03/30 04:01:55;;;;;;;35.28;19.48;;;;;;;6.88;60.46;97049.72;10335989;28;20076;-61
2022/03/30 04:06:54;;;;;;;27.63;17.02;;;;;;;6.89;60.67;97045.41;10305111;28;20061;-61
2022/03/30 04:11:53;;;;;;;27.75;16.20;;;;;;;7.00;60.74;97056.63;10332740;28;20108;-61
2022/03/30 04:16:52;;;;;;;29.83;16.48;;;;;;;6.92;60.54;97042.88;10332757;28;20072;-61
2022/03/30 04:21:51;;;;;;;26.40;16.90;;;;;;;6.87;60.43;97009.34;10332814;28;20036;-61
2022/03/30 04:26:50;;;;;;;;;;;;;;;7.15;59.73;97054.09;10333438;28;20076;-61
2022/03/30 04:31:49;;;;;;;42.95;21.35;;;;;;;6.90;59.91;97006.75;10332741;28;19913;-61
2022/03/30 04:36:48;;;;;;;39.15;20.48;;;;;;;7.21;60.31;97064.38;10332487;28;20407;-62
2022/03/30 04:41:47;;;;;;;40.00;22.13;;;;;;;7.05;59.74;97016.22;10331953;28;20051;-61
2022/03/30 04:46:46;;;;;;;30.73;17.95;;;;;;;7.30;59.58;97036.88;10326177;28;20049;-61
2022/03/30 04:51:45;;;;;;;37.10;21.20;;;;;;;7.51;59.61;97062.72;10331827;28;20076;-61
2022/03/30 04:56:45;;;;;;;37.25;18.48;;;;;;;7.56;59.26;97055.84;10326770;28;20052;-61
2022/03/30 05:01:44;;;;;;;46.42;21.02;;;;;;;7.57;58.80;97025.72;10331022;28;20080;-62
2022/03/30 05:06:43;;;;;;;38.17;21.25;;;;;;;7.65;58.68;97036.91;10330057;28;20510;-61
2022/03/30 05:11:43;;;;;;;48.35;26.80;;;;;;;7.97;58.26;97062.69;10326721;28;20479;-61
2022/03/30 05:16:42;;;;;;;43.33;24.33;;;;;;;8.20;58.33;97059.19;10328586;28;20069;-61
2022/03/30 05:21:41;;;;;;;46.15;26.33;;;;;;;8.33;58.03;97058.28;10328209;28;20116;-62
2022/03/30 05:26:40;;;;;;;59.10;32.97;;;;;;;8.30;58.12;97035.03;10325905;28;20033;-61
2022/03/30 05:31:39;;;;;;;60.40;35.58;;;;;;;8.32;57.48;97025.56;10326840;28;20133;-61
2022/03/30 05:36:38;;;;;;;56.05;34.28;;;;;;;8.68;56.71;97045.22;10327322;28;20048;-61
2022/03/30 05:41:37;;;;;;;64.53;35.08;;;;;;;9.03;56.87;97059.69;10323939;28;20033;-62
2022/03/30 05:46:36;;;;;;;64.10;34.25;;;;;;;9.11;56.57;97049.25;10329161;28;20050;-61
2022/03/30 05:51:35;;;;;;;56.40;30.10;;;;;;;9.50;55.91;97057.66;10324927;28;20542;-61
2022/03/30 06:01:52;;;;;;;39.15;22.65;;;;;;;9.81;54.33;96982.25;10327386;28;20077;-61
2022/03/30 06:06:51;;;;;;;38.70;19.20;;;;;;;10.46;52.08;97044.63;10333584;28;20689;-61
2022/03/30 06:11:50;;;;;;;;;;;;;;;10.82;50.97;97045.88;10326028;28;20073;-61
2022/03/30 06:16:49;;;;;;;45.22;24.63;;;;;;;11.19;50.77;97050.59;10329219;28;20004;-61
2022/03/30 06:21:48;;;;;;;49.15;27.67;;;;;;;11.50;50.69;97053.56;10333086;28;20029;-61
2022/03/30 06:26:47;;;;;;;48.20;27.27;;;;;;;11.73;49.58;97040.19;10336856;28;20512;-61
2022/03/30 06:31:46;;;;;;;41.10;23.52;;;;;;;12.04;49.19;97039.66;10340438;28;20434;-61
2022/03/30 06:36:45;;;;;;;37.55;19.38;;;;;;;11.99;48.92;96986.88;10339947;28;20503;-61
2022/03/30 06:41:44;;;;;;;28.05;13.63;;;;;;;12.60;46.60;97022.13;10340375;28;20037;-61
2022/03/30 06:46:44;;;;;;;24.80;13.88;;;;;;;13.10;44.58;97038.41;10340020;28;20522;-61
2022/03/30 06:51:43;;;;;;;31.75;20.05;;;;;;;13.44;44.77;97027.16;10340160;28;20065;-61
2022/03/30 06:56:42;;;;;;;;;;;;;;;13.90;43.98;97057.34;10340266;28;20084;-61
2022/03/30 07:01:41;;;;;;;23.25;12.73;;;;;;;14.24;42.40;97053.00;10337638;28;20399;-61
2022/03/30 07:10:14;;;;;;;23.48;11.20;;;;;;;14.52;39.32;97058.31;10336140;28;20048;-61
2022/03/30 07:11:58;;;;;;;21.23;10.43;;;;;;;14.83;38.89;97047.91;10335054;28;20083;-61
2022/03/30 07:16:57;;;;;;;25.05;11.80;;;;;;;15.14;37.62;97052.22;10334959;28;20040;-61
2022/03/30 07:21:56;;;;;;;17.35;8.02;;;;;;;15.41;37.57;97056.59;10335250;28;20048;-61
2022/03/30 07:26:55;;;;;;;18.10;8.77;;;;;;;15.30;35.83;96974.19;10335927;28;20482;-61
2022/03/30 07:31:54;;;;;;;19.05;8.45;;;;;;;15.99;36.13;97042.53;10334733;28;20055;-61
2022/03/30 07:36:54;;;;;;;;;;;;;;;16.30;34.64;97042.31;10333214;28;20076;-61
2022/03/30 07:41:53;;;;;;;21.20;9.43;;;;;;;16.26;33.37;97009.31;10334379;28;19955;-61
2022/03/30 07:46:52;;;;;;;;;;;;;;;16.76;33.54;97048.50;10334613;28;20104;-62
2022/03/30 07:51:51;;;;;;;21.75;7.82;;;;;;;16.96;33.40;97028.59;10333957;28;19979;-61
2022/03/30 07:56:50;;;;;;;;;;;;;;;17.10;31.13;97044.66;10334203;28;20411;-61
2022/03/30 08:01:49;;;;;;;22.35;8.20;;;;;;;17.07;31.65;97050.00;10334426;28;19952;-61
2022/03/30 08:06:47;;;;;;;;;;;;;;;17.19;31.17;97052.19;10334096;28;20025;-61
2022/03/30 08:11:46;;;;;;;23.58;8.98;;;;;;;17.18;31.45;97047.00;10333836;28;19908;-61
2022/03/30 08:16:45;;;;;;;;;;;;;;;17.21;31.44;97052.94;10333006;28;20026;-61
2022/03/30 08:27:04;;;;;;;32.97;9.40;;;;;;;17.40;31.12;97037.34;10332851;28;20065;-61
2022/03/30 08:32:03;;;;;;;20.02;8.45;;;;;;;17.53;30.03;97032.47;10332860;28;20482;-61
2022/03/30 08:37:02;;;;;;;28.17;8.80;;;;;;;17.79;30.26;97027.97;10332719;28;20077;-61
2022/03/30 08:42:04;;;;;;;26.33;8.57;;;;;;;17.94;29.36;97022.06;10332132;28;20061;-61
2022/03/30 08:47:04;;;;;;;24.17;7.47;;;;;;;18.16;29.93;97022.00;10331705;28;20084;-61
2022/03/30 08:52:06;;;;;;;21.65;9.65;;;;;;;18.31;29.66;96997.69;10331711;28;20068;-61
2022/03/30 08:57:05;;;;;;;19.15;7.88;;;;;;;18.67;29.89;96985.63;10331628;28;20065;-61
2022/03/30 09:02:08;;;;;;;18.48;8.43;;;;;;;17.85;28.56;96809.88;10331992;28;20068;-61
2022/03/30 09:07:09;;;;;;;18.40;8.50;;;;;;;19.04;27.44;96997.91;10334980;28;20408;-61
2022/03/30 09:12:10;;;;;;;31.33;8.63;;;;;;;19.19;27.21;96991.94;10334956;28;20060;-61
2022/03/30 09:17:11;;;;;;;25.55;9.48;;;;;;;19.43;28.80;96987.25;10334197;28;20061;-61
2022/03/30 09:22:10;;;;;;;25.65;8.05;;;;;;;19.32;27.14;96996.59;10334537;28;20029;-62
2022/03/30 09:27:09;;;;;;;24.75;8.18;;;;;;;19.52;27.20;97000.91;10334772;28;20069;-62
2022/03/30 09:32:09;;;;;;;25.27;9.07;;;;;;;18.64;27.51;96885.88;10334407;28;20470;-62
2022/03/30 09:37:11;;;;;;;22.13;9.27;;;;;;;19.36;27.12;96963.97;10333177;28;20135;-62
2022/03/30 09:42:11;;;;;;;20.48;9.18;;;;;;;18.85;27.97;96863.84;10333970;28;20488;-62
2022/03/30 09:47:10;;;;;;;18.35;9.02;;;;;;;19.68;27.41;96953.66;10333854;28;20092;-62
2022/03/30 09:52:15;;;;;;;22.48;8.98;;;;;;;19.88;26.63;96958.75;10334102;28;20060;-62
2022/03/30 09:57:35;;;;;;;20.65;9.45;;;;;;;20.01;27.65;96948.44;10333906;28;20061;-62
2022/03/30 10:02:46;;;;;;;16.25;9.23;;;;;;;19.98;24.99;96893.31;10338943;28;20099;-62
2022/03/30 10:07:46;;;;;;;19.75;10.57;;;;;;;20.41;25.05;96941.97;10338486;28;20503;-62
2022/03/30 10:12:45;;;;;;;20.20;9.55;;;;;;;20.75;24.88;96918.19;10337957;28;20468;-62
2022/03/30 10:17:44;;;;;;;23.83;10.43;;;;;;;20.97;24.00;96916.06;10338088;28;20495;-62
2022/03/30 10:23:21;;;;;;;14.63;8.82;;;;;;;21.18;23.24;96908.72;10338038;28;20541;-62
2022/03/30 10:28:39;;;;;;;14.25;9.00;;;;;;;21.00;23.72;96900.03;10338030;28;20076;-62
2022/03/30 10:33:44;;;;;;;21.17;10.50;;;;;;;20.32;25.16;96786.13;10338231;28;20491;-62
2022/03/30 10:39:15;;;;;;;14.90;9.40;;;;;;;21.18;23.06;96881.47;10337470;28;20072;-62
2022/03/30 10:44:41;;;;;;;14.85;9.45;;;;;;;21.58;23.23;96863.34;10337093;28;20071;-62
2022/03/30 10:49:45;;;;;;;14.93;9.10;;;;;;;21.73;22.75;96806.97;10336925;28;20092;-62
2022/03/30 10:54:44;;;;;;;14.27;9.00;;;;;;;22.35;21.84;96855.09;10336705;28;20474;-62
2022/03/30 11:00:04;;;;;;;18.52;9.25;;;;;;;22.49;22.35;96845.44;10336198;28;20538;-62
2022/03/30 11:05:15;;;;;;;17.20;8.80;;;;;;;22.68;21.24;96845.13;10336407;28;20068;-62
2022/03/30 11:10:47;;;;;;;20.65;8.25;;;;;;;22.60;21.17;96827.09;10335959;28;20065;-62
2022/03/30 11:16:04;;;;;;;19.45;7.90;;;;;;;22.82;21.48;96817.81;10335665;28;20492;-62
2022/03/30 11:21:11;;;;;;;19.88;8.05;;;;;;;22.64;22.52;96825.94;10335697;28;20510;-62
2022/03/30 11:26:10;;;;;;;15.00;7.63;;;;;;;22.76;22.27;96814.63;10335960;28;20068;-62
2022/03/30 11:31:23;;;;;;;18.02;7.68;;;;;;;22.87;22.51;96794.53;10335560;28;20028;-62
2022/03/30 11:36:24;;;;;;;16.23;7.05;;;;;;;23.02;21.65;96801.44;10335635;28;20804;-62
2022/03/30 11:41:23;;;;;;;14.52;7.68;;;;;;;23.08;20.90;96794.91;10334845;28;20080;-62
2022/03/30 11:46:28;;;;;;;14.30;7.47;;;;;;;22.24;20.96;96783.56;10334648;28;20049;-62
2022/03/30 11:51:27;;;;;;;12.55;6.80;;;;;;;22.53;23.03;96776.41;10334263;28;20452;-62
2022/03/30 11:56:26;;;;;;;16.15;7.30;;;;;;;22.54;21.25;96732.31;10334483;28;20498;-62
2022/03/30 12:01:25;;;;;;;23.33;7.65;;;;;;;22.76;21.75;96774.94;10334483;28;20077;-62
2022/03/30 12:06:24;;;;;;;17.08;6.82;;;;;;;22.90;22.29;96770.53;10334248;28;20017;-62
2022/03/30 12:11:24;;;;;;;15.55;7.65;;;;;;;23.00;22.43;96755.75;10333694;28;20040;-62
2022/03/30 12:16:24;;;;;;;19.23;7.18;;;;;;;22.75;22.32;96752.06;10333360;28;20534;-62
2022/03/30 12:21:25;;;;;;;18.08;7.45;;;;;;;22.83;22.39;96748.91;10333740;28;20075;-62
2022/03/30 12:26:25;;;;;;;17.00;7.13;;;;;;;23.00;21.86;96739.88;10333007;28;20362;-62
2022/03/30 12:31:24;;;;;;;14.75;7.25;;;;;;;23.05;21.74;96737.75;10332801;28;20464;-62
2022/03/30 12:36:23;;;;;;;21.67;7.70;;;;;;;22.91;22.48;96687.56;10333250;28;20406;-62
2022/03/30 12:41:26;;;;;;;12.40;6.40;;;;;;;22.73;20.10;96722.19;10332652;28;20067;-62
2022/03/30 12:46:29;;;;;;;20.45;7.00;;;;;;;22.45;20.15;96728.47;10331671;28;20096;-62
2022/03/30 12:51:33;;;;;;;20.83;7.75;;;;;;;22.60;22.01;96729.28;10331218;28;20514;-62
2022/03/30 12:56:32;;;;;;;14.00;7.00;;;;;;;22.83;21.26;96716.34;10330405;28;20088;-62
2022/03/30 13:01:39;;;;;;;12.80;6.10;;;;;;;22.50;20.32;96701.72;10330174;28;20098;-62
2022/03/30 13:06:38;;;;;;;20.67;6.75;;;;;;;22.60;20.93;96700.19;10330211;28;20065;-62
2022/03/30 13:11:49;;;;;;;36.08;32.05;;;;;;;22.56;21.04;96701.34;10330008;28;20057;-62
2022/03/30 13:16:58;;;;;;;24.90;17.27;;;;;;;22.34;21.13;96700.09;10329971;28;20065;-62
2022/03/30 13:21:58;;;;;;;45.17;37.10;;;;;;;22.26;21.95;96699.75;10329688;28;20060;-62
2022/03/30 13:27:10;;;;;;;36.90;25.23;;;;;;;21.67;21.95;96648.94;10329648;28;20069;-62
2022/03/30 13:32:09;;;;;;;19.23;9.52;;;;;;;21.84;22.31;96698.03;10329589;28;20068;-62
2022/03/30 13:37:09;;;;;;;17.88;7.30;;;;;;;21.69;21.45;96684.84;10328251;28;20065;-62
2022/03/30 13:42:08;;;;;;;23.63;7.90;;;;;;;21.69;22.13;96681.38;10329061;28;20076;-62
2022/03/30 13:47:07;;;;;;;19.63;6.65;;;;;;;21.63;22.71;96647.41;10291070;28;1121853;-62
2022/03/30 13:52:07;;;;;;;20.08;6.60;;;;;;;21.76;22.48;96633.34;10330559;28;20411;-62
2022/03/30 13:57:06;;;;;;;16.13;6.97;;;;;;;22.18;21.92;96683.56;10330451;28;20065;-62
2022/03/30 14:02:05;;;;;;;16.75;6.47;;;;;;;22.11;21.67;96684.91;10330724;28;20057;-62
2022/03/30 14:07:04;;;;;;;16.48;6.60;;;;;;;21.70;22.01;96660.13;10334056;28;20071;-62
2022/03/30 14:12:03;;;;;;;17.30;6.43;;;;;;;21.66;22.46;96673.63;10333719;28;20072;-62
2022/03/30 14:17:03;;;;;;;15.55;5.80;;;;;;;21.36;22.59;96653.50;10333477;28;20068;-62
2022/03/30 14:22:02;;;;;;;27.55;14.15;;;;;;;21.06;23.06;96612.19;10334024;28;20395;-62
2022/03/30 14:27:01;;;;;;;35.25;18.98;;;;;;;21.11;22.81;96659.38;10333994;28;20439;-62
2022/03/30 14:32:00;;;;;;;28.30;16.85;;;;;;;20.68;23.29;96630.31;10333302;28;20053;-62
2022/03/30 14:36:59;;;;;;;41.05;30.60;;;;;;;20.61;23.85;96672.03;10333361;28;20030;-62
2022/03/30 14:41:58;;;;;;;43.85;14.60;;;;;;;20.30;24.32;96665.00;10333207;28;20395;-62
2022/03/30 14:46:57;;;;;;;51.40;28.67;;;;;;;20.01;24.68;96666.66;10335995;28;20080;-62
2022/03/30 14:51:56;;;;;;;29.77;12.77;;;;;;;19.76;24.69;96673.28;10340211;28;20033;-62
2022/03/30 14:56:56;;;;;;;25.75;14.27;;;;;;;19.40;24.75;96644.56;10339884;28;20033;-62
2022/03/30 15:01:55;;;;;;;27.08;12.75;;;;;;;19.44;25.12;96673.25;10340227;28;20499;-62
2022/03/30 15:06:54;;;;;;;25.60;11.88;;;;;;;19.50;25.67;96668.59;10336300;28;20542;-62
2022/03/30 15:11:53;;;;;;;25.70;9.95;;;;;;;18.94;25.95;96589.16;10336083;28;20068;-62
2022/03/30 15:16:52;;;;;;;26.40;12.70;;;;;;;19.40;25.89;96661.19;10336087;28;20091;-62
2022/03/30 15:21:51;;;;;;;23.88;8.13;;;;;;;19.13;25.77;96660.88;10336070;28;20411;-62
2022/03/30 15:26:50;;;;;;;18.70;6.35;;;;;;;18.94;26.66;96652.25;10335341;28;20021;-62
2022/03/30 15:31:50;;;;;;;19.52;8.23;;;;;;;18.62;26.65;96641.59;10335407;28;20057;-62
2022/03/30 15:36:51;;;;;;;46.15;27.25;;;;;;;18.15;27.18;96584.41;10334942;28;20060;-62
2022/03/30 15:41:50;;;;;;;23.63;9.70;;;;;;;17.92;26.49;96586.44;10334819;28;20064;-62
2022/03/30 15:46:49;;;;;;;24.85;13.13;;;;;;;18.14;26.34;96657.09;10334387;28;20122;-62
2022/03/30 15:51:48;;;;;;;25.75;13.75;;;;;;;17.32;26.80;96552.53;10334687;28;20065;-62
2022/03/30 15:56:48;;;;;;;56.30;27.90;;;;;;;17.81;27.09;96638.59;10334109;28;20060;-62
2022/03/30 16:01:47;;;;;;;26.63;17.80;;;;;;;17.52;27.21;96609.31;10333849;28;20065;-62
2022/03/30 16:06:45;;;;;;;;;;;;;;;17.69;27.10;96652.25;10334159;28;20035;-62
2022/03/30 16:17:03;;;;;;;18.92;9.00;;;;;;;17.52;27.67;96655.69;10333362;28;20073;-62
2022/03/30 16:22:03;;;;;;;19.95;8.93;;;;;;;17.12;27.56;96594.56;10333080;28;20068;-62
2022/03/30 16:27:03;;;;;;;57.25;40.05;;;;;;;17.38;27.50;96663.31;10328856;28;20073;-62
2022/03/30 16:32:05;;;;;;;36.60;18.25;;;;;;;16.48;27.96;96544.09;10332725;28;20061;-62
2022/03/30 16:37:05;;;;;;;39.38;22.50;;;;;;;17.24;27.57;96675.28;10331165;28;20065;-62
2022/03/30 16:42:04;;;;;;;47.80;29.77;;;;;;;17.25;28.04;96673.50;10332160;28;20065;-62
2022/03/30 16:47:04;;;;;;;;;;;;;;;17.16;28.35;96666.06;10332105;28;20090;-62
2022/03/30 16:52:04;;;;;;;31.95;16.13;;;;;;;17.10;28.61;96675.06;10325655;28;19952;-62
2022/03/30 16:57:03;;;;;;;49.13;32.95;;;;;;;16.93;29.18;96671.41;10331722;28;20060;-62
2022/03/30 17:02:03;;;;;;;23.05;10.73;;;;;;;16.76;29.08;96684.34;10331641;28;20073;-62
2022/03/30 17:07:04;;;;;;;42.63;24.38;;;;;;;16.58;29.18;96687.75;10331505;28;20091;-62
2022/03/30 17:12:03;;;;;;;37.67;17.52;;;;;;;16.38;29.93;96667.63;10330830;28;20076;-62
2022/03/30 17:17:02;;;;;;;31.17;15.23;;;;;;;16.23;30.20;96663.88;10331464;28;20087;-62
2022/03/30 17:22:01;;;;;;;28.65;11.05;;;;;;;16.18;29.67;96677.13;10324818;28;20535;-62
2022/03/30 17:27:00;;;;;;;;;;;;;;;16.12;30.11;96673.94;10332598;28;20468;-62
2022/03/30 17:32:00;;;;;;;33.05;18.13;;;;;;;15.72;30.73;96631.03;10330945;28;19915;-62
2022/03/30 17:36:59;;;;;;;35.08;18.55;;;;;;;15.98;30.37;96698.88;10330735;28;20065;-62
2022/03/30 17:41:59;;;;;;;41.08;19.33;;;;;;;15.83;30.68;96697.75;10330338;28;20061;-62
2022/03/30 17:46:58;;;;;;;36.28;15.98;;;;;;;15.86;30.93;96712.47;10329891;28;20108;-62
2022/03/30 17:51:57;;;;;;;;;;;;;;;15.78;31.14;96719.69;10330316;28;20072;-62
2022/03/30 17:56:56;;;;;;;18.08;7.22;;;;;;;15.42;31.49;96701.88;10330384;28;19952;-62
2022/03/30 18:01:57;;;;;;;24.42;7.95;;;;;;;15.56;31.48;96732.75;10329364;28;20077;-62
2022/03/30 18:06:56;;;;;;;25.45;10.68;;;;;;;15.53;31.68;96727.63;10330112;28;20135;-62
2022/03/30 18:11:56;;;;;;;;;;;;;;;15.49;31.65;96731.28;10329904;28;20080;-62
2022/03/30 18:16:55;;;;;;;50.80;28.88;;;;;;;15.06;31.70;96678.81;10329595;28;19956;-62
2022/03/30 18:21:54;;;;;;;55.33;34.50;;;;;;;15.02;31.47;96672.00;10332777;28;20069;-61
2022/03/30 18:26:53;;;;;;;20.00;8.25;;;;;;;15.37;31.97;96736.03;10337298;28;20041;-60
2022/03/30 18:31:52;;;;;;;18.40;9.60;;;;;;;15.33;31.46;96733.59;10337022;28;20022;-62
2022/03/30 18:36:51;;;;;;;70.72;40.08;;;;;;;14.87;31.77;96659.47;10337134;28;20511;-60
2022/03/30 18:41:51;;;;;;;33.53;15.00;;;;;;;14.87;32.77;96675.13;10336690;28;20080;-60
2022/03/30 18:46:50;;;;;;;36.40;18.23;;;;;;;14.87;33.79;96717.78;10336656;28;20092;-60
2022/03/30 18:51:50;;;;;;;33.90;18.48;;;;;;;14.72;34.47;96727.00;10336315;28;20108;-60
2022/03/30 18:56:49;;;;;;;40.30;22.08;;;;;;;14.59;34.86;96742.22;10335853;28;20069;-61
2022/03/30 19:01:48;;;;;;;38.88;23.75;;;;;;;14.44;35.48;96734.88;10335720;28;20036;-61
2022/03/30 19:06:47;;;;;;;48.78;30.27;;;;;;;14.30;35.27;96722.25;10339053;28;20510;-61
2022/03/30 19:11:46;;;;;;;163.50;95.93;;;;;;;14.44;35.24;96739.25;10339172;28;20068;-62
2022/03/30 19:16:45;;;;;;;154.02;86.47;;;;;;;14.38;35.60;96738.53;10339097;28;20076;-62
2022/03/30 19:21:44;;;;;;;100.05;58.08;;;;;;;14.28;35.72;96704.94;10334973;28;20061;-61
2022/03/30 19:26:43;;;;;;;71.15;38.75;;;;;;;14.32;35.32;96704.81;10338505;28;20072;-61
2022/03/30 19:31:42;;;;;;;64.97;36.60;;;;;;;14.28;35.06;96711.03;10336708;28;20034;-61
2022/03/30 19:36:41;;;;;;;27.48;11.70;;;;;;;14.26;34.92;96717.19;10340033;28;20061;-62
2022/03/30 19:41:40;;;;;;;25.38;10.65;;;;;;;14.30;34.54;96708.38;10338180;28;20069;-62
2022/03/30 19:46:39;;;;;;;27.30;13.38;;;;;;;14.40;34.26;96699.31;10337849;28;20128;-62
2022/03/30 19:51:38;;;;;;;23.67;8.80;;;;;;;14.48;33.95;96705.16;10331340;28;20092;-62
2022/03/30 19:56:37;;;;;;;41.70;16.70;;;;;;;14.56;33.78;96695.28;10337344;28;20088;-62
2022/03/30 20:01:36;;;;;;;84.60;55.10;;;;;;;14.52;33.18;96682.41;10337167;28;20473;-62
2022/03/30 20:06:37;;;;;;;29.65;14.88;;;;;;;14.77;33.24;96704.19;10333783;28;20036;-62
2022/03/30 20:11:36;;;;;;;26.75;11.60;;;;;;;14.50;35.88;96710.31;10332580;28;20068;-62
2022/03/30 20:16:35;;;;;;;36.90;17.05;;;;;;;14.23;37.69;96702.50;10333412;28;20041;-60
2022/03/30 20:21:40;;;;;;;28.50;14.93;;;;;;;13.48;38.43;96608.34;10326848;28;20462;-60
2022/03/30 20:26:40;;;;;;;26.88;11.10;;;;;;;13.64;37.92;96677.41;10308141;28;20459;-60
2022/03/30 20:31:40;;;;;;;34.75;12.30;;;;;;;13.74;37.27;96677.97;10314830;28;20060;-60
2022/03/30 20:36:39;;;;;;;32.58;15.10;;;;;;;13.84;37.37;96670.69;10308410;28;20069;-60
2022/03/30 20:41:39;;;;;;;45.20;18.33;;;;;;;13.84;37.56;96681.13;10325230;28;20034;-61
2022/03/30 20:46:38;;;;;;;;;;;;;;;13.80;36.66;96667.34;10331913;28;20508;-61
2022/03/30 20:51:37;;;;;;;23.42;6.97;;;;;;;13.94;36.41;96667.78;10325731;28;20394;-61
2022/03/30 20:56:36;;;;;;;22.55;6.10;;;;;;;14.12;35.53;96655.88;10332080;28;20418;-61
2022/03/30 21:01:35;;;;;;;21.77;5.78;;;;;;;14.32;35.26;96659.59;10331156;28;20077;-61
2022/03/30 21:06:34;;;;;;;24.27;5.95;;;;;;;14.47;35.36;96650.38;10332021;28;20069;-61
2022/03/30 21:11:33;;;;;;;;;;;;;;;14.58;34.54;96633.44;10332082;28;20060;-61
2022/03/30 21:16:32;;;;;;;18.35;5.55;;;;;;;14.48;34.29;96602.50;10331081;28;20007;-61
2022/03/30 21:21:31;;;;;;;23.88;6.00;;;;;;;14.63;34.33;96617.63;10324606;28;20068;-61
2022/03/30 21:26:31;;;;;;;;;;;;;;;14.83;34.37;96636.06;10331347;28;20077;-61
2022/03/30 21:31:29;;;;;;;28.03;5.50;;;;;;;14.81;33.89;96622.22;10330353;28;19944;-61
2022/03/30 21:36:28;;;;;;;21.83;6.35;;;;;;;14.92;33.61;96634.91;10330731;28;20076;-61
2022/03/30 21:41:30;;;;;;;28.20;5.95;;;;;;;14.93;33.72;96635.75;10330836;28;20047;-61
2022/03/30 21:46:29;;;;;;;24.67;5.68;;;;;;;14.88;33.68;96606.34;10330197;28;20085;-61
2022/03/30 21:51:28;;;;;;;18.35;5.25;;;;;;;15.06;33.36;96637.00;10329822;28;20076;-61
2022/03/30 21:56:27;;;;;;;53.42;36.85;;;;;;;14.76;34.40;96608.47;10327112;28;20033;-61
2022/03/30 22:01:26;;;;;;;29.90;15.70;;;;;;;14.79;34.85;96618.81;10338236;28;20549;-61
2022/03/30 22:06:25;;;;;;;23.92;8.18;;;;;;;14.48;36.09;96633.84;10341549;28;20333;-61
2022/03/30 22:11:24;;;;;;;25.48;8.80;;;;;;;14.27;36.44;96638.03;10341418;28;20029;-61
2022/03/30 22:16:26;;;;;;;29.77;14.30;;;;;;;13.91;37.10;96633.09;10338921;28;20040;-61
2022/03/30 22:21:25;;;;;;;25.10;8.98;;;;;;;13.78;37.51;96627.44;10337507;28;20068;-61
2022/03/30 22:26:24;;;;;;;24.10;8.57;;;;;;;13.59;37.70;96618.50;10332559;28;20035;-61
2022/03/30 22:36:41;;;;;;;19.80;9.15;;;;;;;13.41;38.46;96586.00;10342368;28;20060;-61
2022/03/30 22:41:40;;;;;;;26.15;9.30;;;;;;;13.29;38.49;96576.81;10340262;28;20041;-61
2022/03/30 22:46:39;;;;;;;31.25;17.60;;;;;;;12.51;38.99;96488.88;10339781;28;20071;-61
2022/03/30 22:51:41;;;;;;;31.42;10.93;;;;;;;13.08;39.09;96579.16;10340029;28;20064;-61
2022/03/30 22:56:41;;;;;;;41.13;15.25;;;;;;;13.11;38.80;96583.41;10333401;28;20065;-61
2022/03/30 23:01:40;;;;;;;32.97;9.95;;;;;;;13.08;39.41;96568.72;10339256;28;20064;-61
2022/03/30 23:11:57;;;;;;;33.65;17.50;;;;;;;12.98;39.64;96575.13;10335439;28;20061;-61
2022/03/30 23:16:56;;;;;;;20.52;9.32;;;;;;;12.95;39.52;96575.19;10335757;28;20091;-61
2022/03/30 23:21:55;;;;;;;25.05;6.80;;;;;;;13.02;38.46;96578.47;10335954;28;20414;-61
2022/03/30 23:26:54;;;;;;;21.50;10.70;;;;;;;12.94;38.20;96534.44;10327786;28;20080;-61
2022/03/30 23:31:53;;;;;;;19.85;6.63;;;;;;;13.17;38.32;96541.56;10334865;28;20092;-61
2022/03/30 23:36:52;;;;;;;20.85;5.90;;;;;;;13.43;37.87;96545.97;10335239;28;20030;-61